Time;durP1;ratioP1;P1;durP2;ratioP2;P2;SDS_P1;SDS_P2;PMS_P1;PMS_P2;Temp;Humidity;BMP_temperature;BMP_pressure;BME280_temperature;BME280_humidity;BME280_pressure;Samples;Min_cycle;Max_cycle;Signal;HPM_P1;HPM_P2
2021/10/10 00:00:22;;;;;;;18.13;11.65;;;5.30;99.90;;;;;;5085539;28;20219;-44
2021/10/10 00:02:49;;;;;;;18.23;12.80;;;5.30;99.90;;;;;;5081106;28;20610;-49
2021/10/10 00:05:16;;;;;;;22.95;13.43;;;5.30;99.90;;;;;;5078692;28;20245;-40
2021/10/10 00:07:43;;;;;;;16.48;11.65;;;5.30;99.90;;;;;;5068108;28;20241;-48
2021/10/10 00:10:14;;;;;;;20.30;13.23;;;5.20;99.90;;;;;;5072694;28;20209;-48
2021/10/10 00:12:42;;;;;;;15.93;11.52;;;5.30;99.90;;;;;;5068166;28;20235;-45
2021/10/10 00:15:12;;;;;;;18.13;11.70;;;5.30;99.90;;;;;;5073724;28;20202;-49
2021/10/10 00:17:39;;;;;;;19.33;13.75;;;5.30;99.90;;;;;;5078256;28;20199;-45
2021/10/10 00:20:07;;;;;;;18.92;14.30;;;5.20;99.90;;;;;;5072003;28;20206;-46
2021/10/10 00:22:34;;;;;;;23.83;12.15;;;5.20;99.90;;;;;;5074641;28;20279;-46
2021/10/10 00:25:03;;;;;;;21.38;12.40;;;5.20;99.90;;;;;;5075461;28;20331;-49
2021/10/10 00:27:30;;;;;;;14.18;11.55;;;5.20;99.90;;;;;;5083759;28;20210;-45
2021/10/10 00:30:00;;;;;;;16.60;14.15;;;5.20;99.90;;;;;;5083847;28;20390;-44
2021/10/10 00:32:27;;;;;;;18.40;12.45;;;5.10;99.90;;;;;;5073691;28;20220;-42
2021/10/10 00:34:55;;;;;;;16.30;12.02;;;5.10;99.90;;;;;;5079876;28;20241;-43
2021/10/10 00:37:23;;;;;;;19.98;12.02;;;5.10;99.90;;;;;;5067134;28;20196;-43
2021/10/10 00:39:52;;;;;;;14.93;11.48;;;5.10;99.90;;;;;;5072497;28;20490;-45
2021/10/10 00:42:20;;;;;;;15.98;12.82;;;5.10;99.90;;;;;;5080471;28;20540;-48
2021/10/10 00:44:49;;;;;;;17.35;12.50;;;5.10;99.90;;;;;;5076266;28;20289;-44
2021/10/10 00:47:17;;;;;;;14.88;11.50;;;5.20;99.90;;;;;;5082854;28;20202;-49
2021/10/10 00:49:44;;;;;;;17.27;11.45;;;5.20;99.90;;;;;;5077703;28;20204;-49
2021/10/10 00:52:16;;;;;;;21.75;12.85;;;5.10;99.90;;;;;;5068376;28;20210;-51
2021/10/10 00:54:47;;;;;;;16.88;12.30;;;5.10;99.90;;;;;;5078816;28;20547;-44
2021/10/10 00:57:17;;;;;;;17.15;11.98;;;5.10;99.90;;;;;;5071325;28;20240;-44
2021/10/10 00:59:46;;;;;;;19.08;14.70;;;5.10;99.90;;;;;;5082413;28;20311;-44
2021/10/10 01:02:14;;;;;;;20.90;13.55;;;5.10;99.90;;;;;;5071780;28;20207;-44
2021/10/10 01:04:41;;;;;;;17.70;12.80;;;5.00;99.90;;;;;;5071734;28;20549;-45
2021/10/10 01:07:09;;;;;;;17.73;13.70;;;4.90;99.90;;;;;;5069227;28;20313;-41
2021/10/10 01:09:37;;;;;;;17.45;12.95;;;4.90;99.90;;;;;;5071496;28;20206;-45
2021/10/10 01:12:06;;;;;;;21.23;14.70;;;4.80;99.90;;;;;;5067456;28;20194;-43
2021/10/10 01:14:35;;;;;;;20.88;13.55;;;4.90;99.90;;;;;;5068429;28;20256;-46
2021/10/10 01:17:03;;;;;;;20.52;14.07;;;4.90;99.90;;;;;;5076280;28;20380;-44
2021/10/10 01:19:31;;;;;;;22.55;13.75;;;4.80;99.90;;;;;;5073091;28;20272;-45
2021/10/10 01:22:01;;;;;;;19.95;13.82;;;4.70;99.90;;;;;;5065873;28;20214;-43
2021/10/10 01:24:29;;;;;;;19.98;14.68;;;4.70;99.90;;;;;;5072666;28;20455;-48
2021/10/10 01:26:56;;;;;;;21.42;15.45;;;4.70;99.90;;;;;;5065644;28;20246;-45
2021/10/10 01:29:23;;;;;;;18.50;14.75;;;4.60;99.90;;;;;;5077465;28;20554;-44
2021/10/10 01:31:50;;;;;;;20.10;14.05;;;4.60;99.90;;;;;;5073118;28;20551;-46
2021/10/10 01:34:17;;;;;;;21.27;14.40;;;4.50;99.90;;;;;;5081470;28;20444;-44
2021/10/10 01:36:45;;;;;;;19.40;13.10;;;4.40;99.90;;;;;;5077828;28;20247;-48
2021/10/10 01:39:12;;;;;;;20.00;15.98;;;4.40;99.90;;;;;;5067854;28;20206;-40
2021/10/10 01:41:40;;;;;;;19.95;14.38;;;4.50;99.90;;;;;;5072624;28;20199;-47
2021/10/10 01:44:15;;;;;;;24.33;16.08;;;4.40;99.90;;;;;;5066066;28;20283;-43
2021/10/10 01:46:43;;;;;;;21.08;15.07;;;4.40;99.90;;;;;;5074337;28;20210;-41
2021/10/10 01:49:11;;;;;;;19.17;12.80;;;4.40;99.90;;;;;;5073540;28;20198;-47
2021/10/10 01:51:40;;;;;;;20.10;14.93;;;4.30;99.90;;;;;;5081165;28;20243;-45
2021/10/10 01:54:07;;;;;;;24.73;15.18;;;4.30;99.90;;;;;;5071782;28;20224;-47
2021/10/10 01:56:35;;;;;;;22.83;14.35;;;4.40;99.90;;;;;;5061150;28;20453;-45
2021/10/10 01:59:02;;;;;;;22.17;15.05;;;4.30;99.90;;;;;;5066751;28;20225;-46
2021/10/10 02:01:29;;;;;;;19.48;16.67;;;4.30;99.90;;;;;;5068872;28;20213;-47
2021/10/10 02:03:58;;;;;;;18.88;16.05;;;4.40;99.90;;;;;;5072260;28;20290;-45
2021/10/10 02:06:25;;;;;;;20.25;14.00;;;4.40;99.90;;;;;;5067417;28;20255;-46
2021/10/10 02:08:53;;;;;;;24.95;15.77;;;4.40;99.90;;;;;;5068887;28;20206;-50
2021/10/10 02:11:20;;;;;;;18.88;14.68;;;4.30;99.90;;;;;;5074810;28;20501;-45
2021/10/10 02:13:47;;;;;;;26.17;19.20;;;4.30;99.90;;;;;;5059986;28;20229;-50
2021/10/10 02:16:14;;;;;;;23.10;16.20;;;4.20;99.90;;;;;;5074885;28;20213;-48
2021/10/10 02:18:42;;;;;;;22.50;15.73;;;4.10;99.90;;;;;;5060960;28;20459;-42
2021/10/10 02:21:09;;;;;;;27.20;17.85;;;4.20;99.90;;;;;;5065295;28;20205;-44
2021/10/10 02:23:37;;;;;;;25.83;16.67;;;4.20;99.90;;;;;;5061736;28;20228;-45
2021/10/10 02:26:04;;;;;;;19.45;15.70;;;4.10;99.90;;;;;;5060417;28;20511;-48
2021/10/10 02:28:31;;;;;;;24.55;17.50;;;4.10;99.90;;;;;;5065968;28;20197;-44
2021/10/10 02:30:58;;;;;;;22.05;15.00;;;4.10;99.90;;;;;;5068488;28;20201;-48
2021/10/10 02:33:25;;;;;;;25.55;15.30;;;4.10;99.90;;;;;;5074045;28;20220;-47
2021/10/10 02:35:52;;;;;;;20.23;15.55;;;4.10;99.90;;;;;;5072599;28;20246;-45
2021/10/10 02:38:19;;;;;;;23.77;17.70;;;4.10;99.90;;;;;;5070188;28;20267;-44
2021/10/10 02:40:46;;;;;;;25.10;17.05;;;3.90;99.90;;;;;;5073105;28;20273;-49
2021/10/10 02:43:14;;;;;;;27.88;16.85;;;3.90;99.90;;;;;;5066081;28;20238;-49
2021/10/10 02:45:41;;;;;;;22.83;16.70;;;4.00;99.90;;;;;;5071376;28;20234;-45
2021/10/10 02:48:08;;;;;;;22.85;16.38;;;3.90;99.90;;;;;;5074119;28;20200;-48
2021/10/10 02:50:35;;;;;;;25.73;17.30;;;3.80;99.90;;;;;;5070206;28;20195;-42
2021/10/10 02:53:03;;;;;;;21.08;16.38;;;3.80;99.90;;;;;;5062860;28;20217;-44
2021/10/10 02:55:31;;;;;;;28.90;18.60;;;3.80;99.90;;;;;;5076613;28;20250;-44
2021/10/10 02:57:58;;;;;;;28.65;20.15;;;3.80;99.90;;;;;;5072893;28;20200;-47
2021/10/10 03:00:25;;;;;;;22.38;16.92;;;3.60;99.90;;;;;;5070554;28;20230;-49
2021/10/10 03:02:53;;;;;;;28.52;17.85;;;3.60;99.90;;;;;;5072559;28;20226;-44
2021/10/10 03:05:21;;;;;;;32.80;20.15;;;3.60;99.90;;;;;;5069961;28;20255;-46
2021/10/10 03:07:48;;;;;;;24.65;16.88;;;3.60;99.90;;;;;;5067799;28;20193;-50
2021/10/10 03:10:15;;;;;;;24.20;17.65;;;3.50;99.90;;;;;;5074349;28;20199;-50
2021/10/10 03:12:43;;;;;;;25.60;17.83;;;3.60;99.90;;;;;;5080529;28;20233;-44
2021/10/10 03:15:10;;;;;;;29.45;19.52;;;3.50;99.90;;;;;;5070342;28;20204;-49
2021/10/10 03:17:37;;;;;;;36.00;22.77;;;3.40;99.90;;;;;;5068469;28;20274;-48
2021/10/10 03:20:06;;;;;;;24.77;17.48;;;3.50;99.90;;;;;;5069777;28;20441;-50
2021/10/10 03:22:33;;;;;;;25.40;17.55;;;3.50;99.90;;;;;;5062873;28;20226;-51
2021/10/10 03:25:00;;;;;;;26.13;20.90;;;3.50;99.90;;;;;;5062485;28;20221;-45
2021/10/10 03:27:27;;;;;;;26.20;18.42;;;3.40;99.90;;;;;;5078333;28;20200;-46
2021/10/10 03:29:54;;;;;;;30.85;18.50;;;3.50;99.90;;;;;;5069884;28;20200;-44
2021/10/10 03:32:22;;;;;;;25.80;20.05;;;3.40;99.90;;;;;;5063765;28;20269;-47
2021/10/10 03:34:50;;;;;;;26.23;21.02;;;3.40;99.90;;;;;;5083584;28;20245;-49
2021/10/10 03:37:17;;;;;;;28.98;17.90;;;3.40;99.90;;;;;;5070565;28;20200;-44
2021/10/10 03:39:44;;;;;;;27.02;20.90;;;3.30;99.90;;;;;;5066260;28;20508;-46
2021/10/10 03:42:11;;;;;;;28.02;19.20;;;3.20;99.90;;;;;;5078340;28;20213;-49
2021/10/10 03:44:39;;;;;;;27.08;20.70;;;3.20;99.90;;;;;;5075192;28;20277;-47
2021/10/10 03:47:06;;;;;;;28.50;20.25;;;3.10;99.90;;;;;;5076897;28;20241;-45
2021/10/10 03:49:33;;;;;;;30.30;21.63;;;3.10;99.90;;;;;;5073626;28;20209;-49
2021/10/10 03:52:00;;;;;;;26.00;19.20;;;3.20;99.90;;;;;;5069424;28;20209;-45
2021/10/10 03:56:55;;;;;;;29.38;20.02;;;3.30;99.90;;;;;;5069123;28;20201;-45
2021/10/10 03:59:24;;;;;;;32.50;21.98;;;3.30;99.90;;;;;;5066039;28;20200;-44
2021/10/10 04:01:51;;;;;;;27.35;21.38;;;3.30;99.90;;;;;;5068206;28;20200;-44
2021/10/10 04:04:19;;;;;;;27.70;20.63;;;3.30;99.90;;;;;;5082244;28;20228;-46
2021/10/10 04:06:46;;;;;;;32.78;21.42;;;3.20;99.90;;;;;;5071464;28;20223;-49
2021/10/10 04:09:13;;;;;;;27.05;18.05;;;3.10;99.90;;;;;;5070129;28;20204;-44
2021/10/10 04:11:40;;;;;;;26.63;18.83;;;3.10;99.90;;;;;;5067021;28;20199;-50
2021/10/10 04:14:07;;;;;;;27.52;21.60;;;3.00;99.90;;;;;;5076849;28;20228;-44
2021/10/10 04:16:35;;;;;;;34.78;20.42;;;3.10;99.90;;;;;;5071572;28;20199;-52
2021/10/10 04:19:02;;;;;;;28.38;19.80;;;3.00;99.90;;;;;;5073170;28;20209;-47
2021/10/10 04:21:29;;;;;;;32.22;20.73;;;3.10;99.90;;;;;;5069547;28;20245;-50
2021/10/10 04:23:56;;;;;;;25.58;18.77;;;3.00;99.90;;;;;;5083626;28;20227;-48
2021/10/10 04:26:24;;;;;;;28.55;18.35;;;3.00;99.90;;;;;;5083675;28;20195;-44
2021/10/10 04:28:51;;;;;;;22.90;16.30;;;3.00;99.90;;;;;;5083714;28;20487;-46
2021/10/10 04:31:18;;;;;;;26.20;16.42;;;2.90;99.90;;;;;;5071602;28;20197;-48
2021/10/10 04:33:46;;;;;;;26.73;17.10;;;3.00;99.90;;;;;;5073776;28;20545;-44
2021/10/10 04:36:13;;;;;;;22.17;16.92;;;3.00;99.90;;;;;;5072325;28;20203;-44
2021/10/10 04:38:40;;;;;;;29.58;19.48;;;2.90;99.90;;;;;;5069074;28;20234;-48
2021/10/10 04:41:08;;;;;;;28.02;18.08;;;2.80;99.90;;;;;;5061148;28;20223;-45
2021/10/10 04:43:35;;;;;;;30.55;18.45;;;2.90;99.90;;;;;;5064662;28;20245;-49
2021/10/10 04:46:02;;;;;;;24.25;17.17;;;2.90;99.90;;;;;;5073315;28;20241;-48
2021/10/10 04:48:29;;;;;;;21.13;16.33;;;3.00;99.90;;;;;;5065472;28;20220;-45
2021/10/10 04:50:57;;;;;;;21.92;17.05;;;3.00;99.90;;;;;;5082105;28;20196;-48
2021/10/10 04:53:24;;;;;;;26.35;19.17;;;3.00;99.90;;;;;;5075861;28;20215;-45
2021/10/10 04:55:51;;;;;;;20.63;16.52;;;2.90;99.90;;;;;;5071419;28;20256;-45
2021/10/10 04:58:18;;;;;;;26.80;18.08;;;2.60;99.90;;;;;;5070362;28;20199;-49
2021/10/10 05:00:46;;;;;;;23.27;17.27;;;2.70;99.90;;;;;;5066141;28;20567;-45
2021/10/10 05:03:13;;;;;;;28.55;18.60;;;2.80;99.90;;;;;;5071860;28;20223;-50
2021/10/10 05:05:41;;;;;;;23.02;17.05;;;2.80;99.90;;;;;;5066378;28;20242;-44
2021/10/10 05:08:09;;;;;;;25.63;16.55;;;2.90;99.90;;;;;;5063548;28;20203;-45
2021/10/10 05:10:37;;;;;;;34.53;19.20;;;3.00;99.90;;;;;;5063631;28;20250;-50
2021/10/10 05:13:04;;;;;;;26.63;17.55;;;3.20;99.90;;;;;;5069444;28;20224;-49
2021/10/10 05:15:32;;;;;;;30.23;18.00;;;3.10;99.90;;;;;;5076123;28;20203;-49
2021/10/10 05:17:59;;;;;;;24.15;17.77;;;3.20;99.90;;;;;;5064328;28;20201;-48
2021/10/10 05:20:26;;;;;;;31.15;19.02;;;3.30;99.90;;;;;;5069996;28;20246;-45
2021/10/10 05:22:53;;;;;;;21.98;16.42;;;3.20;99.90;;;;;;5079970;28;20222;-49
2021/10/10 05:25:21;;;;;;;23.77;16.67;;;3.10;99.90;;;;;;5078447;28;20265;-44
2021/10/10 05:27:47;;;;;;;23.52;18.10;;;3.10;99.90;;;;;;5077969;28;20445;-43
2021/10/10 05:30:14;;;;;;;30.42;19.02;;;3.10;99.90;;;;;;5071441;28;20537;-46
2021/10/10 05:32:42;;;;;;;22.60;16.75;;;3.30;99.90;;;;;;5069271;28;20262;-50
2021/10/10 05:35:09;;;;;;;24.63;17.92;;;3.50;99.90;;;;;;5068545;28;20250;-46
2021/10/10 05:37:37;;;;;;;32.25;18.58;;;3.40;99.90;;;;;;5073754;28;20199;-51
2021/10/10 05:40:04;;;;;;;24.20;17.63;;;3.30;99.90;;;;;;5067745;28;20230;-43
2021/10/10 05:42:32;;;;;;;27.38;18.00;;;3.30;99.90;;;;;;5061432;28;20461;-45
2021/10/10 05:44:59;;;;;;;21.00;18.05;;;3.30;99.90;;;;;;5066234;28;20219;-44
2021/10/10 05:47:27;;;;;;;28.08;18.33;;;3.50;99.90;;;;;;5068569;28;20639;-44
2021/10/10 05:49:54;;;;;;;25.73;18.80;;;3.60;99.90;;;;;;5074304;28;20547;-46
2021/10/10 05:52:24;;;;;;;24.05;17.75;;;3.70;99.90;;;;;;5063599;28;20215;-45
2021/10/10 05:54:51;;;;;;;20.40;16.60;;;3.50;99.90;;;;;;5061876;28;20188;-45
2021/10/10 05:57:24;;;;;;;31.52;19.55;;;3.50;99.90;;;;;;5067722;28;20254;-45
2021/10/10 05:59:55;;;;;;;25.88;19.00;;;3.40;99.90;;;;;;5084265;28;20200;-49
2021/10/10 06:02:23;;;;;;;25.80;17.50;;;3.30;99.90;;;;;;5075189;28;20224;-45
2021/10/10 06:04:50;;;;;;;25.38;17.90;;;3.40;99.90;;;;;;5073662;28;20224;-42
2021/10/10 06:07:17;;;;;;;23.08;16.95;;;3.50;99.90;;;;;;5066724;28;20448;-51
2021/10/10 06:09:44;;;;;;;36.88;20.13;;;3.80;99.90;;;;;;5073141;28;20246;-47
2021/10/10 06:12:11;;;;;;;21.15;15.80;;;3.90;99.90;;;;;;5074879;28;20561;-50
2021/10/10 06:14:38;;;;;;;26.55;18.67;;;4.30;99.90;;;;;;5080696;28;20230;-44
2021/10/10 06:17:06;;;;;;;28.40;17.95;;;4.30;99.90;;;;;;5063896;28;20247;-44
2021/10/10 06:19:37;;;;;;;23.80;16.27;;;4.70;99.90;;;;;;5070291;28;20351;-43
2021/10/10 06:22:04;;;;;;;24.05;15.82;;;5.10;99.90;;;;;;5073965;28;20356;-44
2021/10/10 06:24:31;;;;;;;17.73;13.88;;;5.80;99.90;;;;;;5068073;28;20221;-46
2021/10/10 06:26:58;;;;;;;21.33;14.90;;;6.30;99.90;;;;;;5075134;28;20209;-46
2021/10/10 06:29:26;;;;;;;22.95;16.25;;;6.30;99.90;;;;;;5073349;28;20244;-45
2021/10/10 06:31:53;;;;;;;18.10;13.63;;;6.40;99.90;;;;;;5071269;28;20198;-50
2021/10/10 06:34:20;;;;;;;17.40;14.07;;;6.40;99.90;;;;;;5076581;28;20241;-48
2021/10/10 06:36:48;;;;;;;23.58;14.30;;;5.80;99.90;;;;;;5071203;28;20195;-51
2021/10/10 06:39:16;;;;;;;24.13;15.00;;;5.40;99.90;;;;;;5067040;28;20199;-45
2021/10/10 06:41:46;;;;;;;18.50;14.40;;;5.40;99.90;;;;;;5065531;28;20198;-50
2021/10/10 06:44:13;;;;;;;28.00;16.98;;;5.40;99.90;;;;;;5066390;28;20257;-49
2021/10/10 06:46:40;;;;;;;21.23;17.33;;;5.40;99.90;;;;;;5060758;28;20232;-58
2021/10/10 06:49:08;;;;;;;45.22;26.35;;;5.60;99.90;;;;;;5065906;28;20210;-47
2021/10/10 06:51:35;;;;;;;45.92;26.75;;;5.60;99.90;;;;;;5067408;28;20244;-43
2021/10/10 06:54:02;;;;;;;45.17;25.50;;;5.60;99.90;;;;;;5064309;28;20225;-48
2021/10/10 06:56:29;;;;;;;38.25;23.23;;;5.60;99.90;;;;;;5075648;28;20493;-42
2021/10/10 06:58:57;;;;;;;41.38;26.25;;;5.80;99.90;;;;;;5073916;28;20465;-51
2021/10/10 07:01:24;;;;;;;45.55;28.25;;;6.00;99.90;;;;;;5059786;28;20211;-40
2021/10/10 07:03:52;;;;;;;112.53;46.90;;;6.30;99.90;;;;;;5069050;28;20218;-45
2021/10/10 07:06:19;;;;;;;44.70;25.65;;;6.10;99.90;;;;;;5064384;28;20559;-46
2021/10/10 07:08:46;;;;;;;62.15;31.75;;;6.20;99.90;;;;;;5072256;28;20199;-46
2021/10/10 07:11:13;;;;;;;37.17;20.25;;;6.20;99.90;;;;;;5068458;28;21524;-48
2021/10/10 07:13:41;;;;;;;36.67;21.98;;;6.30;99.90;;;;;;5065811;28;20281;-45
2021/10/10 07:16:12;;;;;;;22.98;16.23;;;7.10;99.90;;;;;;5068070;28;20215;-56
2021/10/10 07:26:34;;;;;;;17.65;12.73;;;12.30;99.90;;;;;;5068860;28;20279;-48
2021/10/10 07:29:02;;;;;;;20.98;14.90;;;13.10;99.90;;;;;;5068932;28;20201;-48
2021/10/10 07:31:29;;;;;;;17.20;13.18;;;13.20;99.90;;;;;;5065608;28;20238;-45
2021/10/10 07:33:56;;;;;;;17.20;14.13;;;14.10;99.90;;;;;;5074782;28;20218;-50
2021/10/10 07:36:23;;;;;;;26.02;18.50;;;14.50;98.60;;;;;;5066571;28;20203;-46
2021/10/10 07:38:50;;;;;;;30.77;21.85;;;15.70;97.50;;;;;;5077528;28;20200;-45
2021/10/10 07:41:18;;;;;;;21.85;15.57;;;16.20;95.40;;;;;;5078645;28;20213;-47
2021/10/10 07:43:45;;;;;;;26.20;16.67;;;16.40;93.70;;;;;;5046497;28;20466;-51
2021/10/10 07:46:20;;;;;;;31.60;21.90;;;16.80;93.00;;;;;;5068626;28;20625;-45
2021/10/10 07:48:48;;;;;;;29.47;19.87;;;16.90;92.90;;;;;;5064684;28;20457;-46
2021/10/10 07:51:16;;;;;;;26.30;17.43;;;17.40;91.30;;;;;;5077099;28;20434;-48
2021/10/10 07:53:44;;;;;;;21.30;16.57;;;17.20;90.90;;;;;;5075683;28;20569;-46
2021/10/10 07:56:12;;;;;;;22.60;16.80;;;17.20;90.70;;;;;;5066725;28;20605;-44
2021/10/10 07:58:39;;;;;;;17.40;15.63;;;16.90;90.70;;;;;;5071692;28;20408;-49
2021/10/10 08:01:06;;;;;;;17.87;16.00;;;17.70;89.30;;;;;;5076939;28;20409;-43
2021/10/10 08:03:33;;;;;;;17.00;15.30;;;17.60;89.10;;;;;;5058765;28;20810;-44
2021/10/10 08:06:00;;;;;;;19.20;16.37;;;18.10;87.10;;;;;;5066966;28;20818;-44
2021/10/10 08:08:27;;;;;;;16.50;14.80;;;18.10;87.30;;;;;;5074768;28;20741;-44
2021/10/10 08:10:55;;;;;;;17.80;15.90;;;17.50;87.50;;;;;;5070138;28;20433;-50
2021/10/10 08:13:22;;;;;;;15.93;13.90;;;17.80;86.60;;;;;;5072666;28;20480;-49
2021/10/10 08:15:54;;;;;;;19.20;15.70;;;18.50;86.60;;;;;;5074805;28;20805;-48
2021/10/10 08:18:21;;;;;;;17.43;15.30;;;19.10;84.30;;;;;;5072849;28;20447;-46
2021/10/10 08:20:48;;;;;;;24.07;16.77;;;19.30;82.10;;;;;;5075277;28;20452;-48
2021/10/10 08:23:15;;;;;;;24.53;15.90;;;20.10;80.20;;;;;;5065641;28;20486;-48
2021/10/10 08:25:42;;;;;;;18.07;14.97;;;20.30;79.30;;;;;;5074991;28;20472;-45
2021/10/10 08:28:09;;;;;;;21.00;16.47;;;20.40;77.80;;;;;;5075930;28;20477;-50
2021/10/10 08:30:37;;;;;;;17.20;15.40;;;20.00;77.80;;;;;;5083711;28;20439;-47
2021/10/10 08:33:04;;;;;;;16.30;14.83;;;19.90;78.00;;;;;;5081508;28;20463;-45
2021/10/10 08:35:32;;;;;;;17.60;15.80;;;19.80;78.40;;;;;;5076492;28;20793;-48
2021/10/10 08:37:59;;;;;;;19.83;16.03;;;19.90;77.60;;;;;;5068141;28;20435;-45
2021/10/10 08:40:27;;;;;;;20.27;16.73;;;20.10;77.20;;;;;;5075539;28;20455;-48
2021/10/10 08:42:58;;;;;;;21.63;16.33;;;19.70;75.30;;;;;;5072117;28;20452;-56
2021/10/10 08:45:30;;;;;;;22.20;16.10;;;20.00;76.40;;;;;;5067583;28;20476;-45
2021/10/10 08:47:57;;;;;;;22.40;16.53;;;20.20;74.70;;;;;;5064145;28;20545;-48
2021/10/10 08:50:29;;;;;;;16.43;14.63;;;20.10;75.20;;;;;;5078115;28;20477;-45
2021/10/10 08:53:00;;;;;;;22.17;14.70;;;19.90;75.00;;;;;;5069436;28;20474;-44
2021/10/10 08:55:31;;;;;;;20.33;16.97;;;20.10;73.30;;;;;;5074749;28;20815;-44
2021/10/10 08:57:59;;;;;;;25.57;17.23;;;20.00;73.30;;;;;;5070964;28;20402;-44
2021/10/10 09:00:32;;;;;;;17.23;15.53;;;19.10;75.10;;;;;;5065681;28;20640;-44
2021/10/10 09:03:01;;;;;;;19.13;14.50;;;19.50;75.00;;;;;;5071598;28;20492;-48
2021/10/10 09:05:47;;;;;;;15.37;13.73;;;18.90;76.30;;;;;;5066897;28;20477;-46
2021/10/10 09:08:14;;;;;;;18.60;15.30;;;17.60;78.70;;;;;;5072027;28;20459;-53
2021/10/10 09:10:41;;;;;;;16.17;14.48;;;15.50;83.90;;;;;;5071095;28;20408;-48
2021/10/10 09:13:12;;;;;;;23.15;15.32;;;13.60;90.30;;;;;;5076890;28;20738;-43
2021/10/10 09:15:40;;;;;;;13.32;11.63;;;12.70;91.60;;;;;;5074494;28;20253;-48
2021/10/10 09:18:09;;;;;;;14.18;12.73;;;12.30;92.60;;;;;;5081185;28;20206;-44
2021/10/10 09:20:47;;;;;;;17.85;12.95;;;12.20;92.90;;;;;;5079351;28;20199;-47
2021/10/10 09:23:20;;;;;;;14.93;12.98;;;12.40;93.40;;;;;;5077458;28;20268;-49
2021/10/10 09:26:14;;;;;;;16.73;13.35;;;12.30;93.80;;;;;;5080685;28;20231;-45
2021/10/10 09:28:41;;;;;;;17.23;12.50;;;12.10;93.70;;;;;;5051021;28;20228;-49
2021/10/10 09:31:09;;;;;;;14.07;11.52;;;11.90;94.00;;;;;;5076873;28;20277;-44
2021/10/10 09:33:42;;;;;;;18.50;11.68;;;11.80;94.50;;;;;;5076017;28;20215;-44
2021/10/10 09:36:22;;;;;;;12.95;10.85;;;11.90;94.70;;;;;;5075529;28;20236;-44
2021/10/10 09:38:57;;;;;;;11.00;9.85;;;11.70;94.30;;;;;;5068212;28;20206;-49
2021/10/10 09:41:33;;;;;;;16.65;12.45;;;11.40;94.50;;;;;;5075551;28;20317;-44
2021/10/10 09:44:28;;;;;;;14.95;12.30;;;11.00;94.90;;;;;;5054565;28;20221;-46
2021/10/10 09:47:00;;;;;;;11.98;10.68;;;11.00;95.50;;;;;;5074374;28;20244;-46
2021/10/10 09:49:32;;;;;;;12.30;10.85;;;11.10;95.40;;;;;;5070524;28;20190;-50
2021/10/10 09:52:08;;;;;;;12.02;9.85;;;11.20;95.20;;;;;;5072055;28;20197;-49
2021/10/10 09:54:55;;;;;;;18.50;10.98;;;11.30;94.80;;;;;;5064781;28;20312;-47
2021/10/10 09:57:27;;;;;;;12.43;9.93;;;11.50;95.20;;;;;;5067553;28;20221;-45
2021/10/10 09:59:55;;;;;;;12.10;10.98;;;11.30;95.10;;;;;;5063842;28;20198;-45
2021/10/10 10:02:42;;;;;;;13.00;11.65;;;11.20;95.50;;;;;;5069282;28;20548;-48
2021/10/10 10:05:25;;;;;;;10.85;9.75;;;11.20;95.80;;;;;;5068295;28;20202;-50
2021/10/10 10:07:54;;;;;;;13.30;10.55;;;11.30;95.40;;;;;;5067970;28;20229;-47
2021/10/10 10:10:23;;;;;;;21.40;10.10;;;11.20;96.10;;;;;;5069307;28;20253;-45
2021/10/10 10:12:52;;;;;;;10.95;8.68;;;11.40;94.70;;;;;;5069312;28;20248;-44
2021/10/10 10:15:25;;;;;;;16.50;11.05;;;11.50;95.40;;;;;;5060784;28;20199;-49
2021/10/10 10:17:55;;;;;;;14.48;10.68;;;11.60;95.90;;;;;;5065099;28;20209;-47
2021/10/10 10:20:24;;;;;;;11.20;10.10;;;11.70;95.10;;;;;;5068455;28;20202;-47
2021/10/10 10:22:54;;;;;;;13.68;10.30;;;11.60;95.30;;;;;;5065918;28;20225;-50
2021/10/10 10:25:23;;;;;;;11.23;9.57;;;11.50;95.40;;;;;;5078914;28;20230;-44
2021/10/10 10:27:52;;;;;;;13.05;10.02;;;11.60;95.60;;;;;;5064595;28;20433;-48
2021/10/10 10:30:23;;;;;;;10.82;9.60;;;11.80;95.40;;;;;;5070109;28;20376;-46
2021/10/10 10:32:53;;;;;;;11.52;8.77;;;12.00;94.50;;;;;;5080271;28;20217;-46
2021/10/10 10:35:20;;;;;;;13.40;10.27;;;12.20;93.30;;;;;;5076384;28;20206;-46
2021/10/10 10:37:50;;;;;;;9.73;8.65;;;12.10;93.60;;;;;;5072140;28;20490;-49
2021/10/10 10:40:39;;;;;;;11.45;10.25;;;12.10;93.90;;;;;;5069377;28;20190;-44
2021/10/10 10:43:12;;;;;;;14.93;9.68;;;12.30;93.80;;;;;;5073044;28;20217;-53
2021/10/10 10:45:45;;;;;;;11.38;9.23;;;12.20;93.20;;;;;;5069832;28;20279;-46
2021/10/10 10:48:27;;;;;;;10.85;9.70;;;12.20;93.20;;;;;;5060400;28;20290;-46
2021/10/10 10:51:26;;;;;;;14.10;10.88;;;12.10;93.90;;;;;;5068919;28;20322;-48
2021/10/10 10:53:53;;;;;;;10.35;9.00;;;12.00;94.10;;;;;;5070027;28;20527;-51
2021/10/10 10:56:26;;;;;;;10.82;9.82;;;12.10;93.70;;;;;;5076669;28;20447;-50
2021/10/10 10:58:57;;;;;;;9.77;8.77;;;12.10;93.30;;;;;;5069945;28;20200;-53
2021/10/10 11:01:25;;;;;;;8.25;7.45;;;12.20;93.00;;;;;;5077940;28;20440;-58
2021/10/10 11:04:24;;;;;;;10.57;9.18;;;12.40;91.60;;;;;;5079302;28;20487;-50
2021/10/10 11:06:55;;;;;;;9.98;8.98;;;12.60;92.00;;;;;;5082545;28;20237;-52
2021/10/10 11:09:26;;;;;;;9.70;8.05;;;12.90;92.20;;;;;;5077824;28;20198;-49
2021/10/10 11:11:56;;;;;;;9.95;8.98;;;12.90;91.60;;;;;;5077387;28;20206;-50
2021/10/10 11:14:29;;;;;;;10.48;9.27;;;12.90;91.70;;;;;;5075685;28;20274;-41
2021/10/10 11:17:07;;;;;;;9.55;8.45;;;13.00;91.50;;;;;;5073766;28;20205;-44
2021/10/10 11:19:34;;;;;;;9.50;7.90;;;12.90;91.40;;;;;;5075986;28;20500;-43
2021/10/10 11:22:01;;;;;;;17.10;8.82;;;12.90;91.40;;;;;;5066933;28;20233;-51
2021/10/10 11:24:28;;;;;;;8.93;8.02;;;12.80;91.20;;;;;;5067692;28;20239;-47
2021/10/10 11:26:58;;;;;;;11.00;8.73;;;12.80;91.80;;;;;;5057417;28;20226;-44
2021/10/10 11:29:27;;;;;;;11.35;7.85;;;12.90;91.20;;;;;;5069961;28;20199;-46
2021/10/10 11:31:56;;;;;;;8.32;7.53;;;12.90;90.80;;;;;;5061829;28;20208;-50
2021/10/10 11:34:24;;;;;;;9.05;8.25;;;13.10;90.90;;;;;;5077270;28;20206;-46
2021/10/10 11:36:56;;;;;;;11.00;8.50;;;13.10;91.20;;;;;;5066216;28;20225;-49
2021/10/10 11:39:23;;;;;;;13.73;8.30;;;13.10;90.80;;;;;;5066057;28;20221;-44
2021/10/10 11:41:56;;;;;;;7.97;7.38;;;13.10;90.20;;;;;;5066477;28;20214;-48
2021/10/10 11:44:26;;;;;;;8.27;7.53;;;13.00;90.40;;;;;;5062159;28;20196;-51
2021/10/10 11:46:59;;;;;;;9.07;8.00;;;13.00;90.10;;;;;;5075246;28;20255;-46
2021/10/10 11:49:45;;;;;;;11.13;7.93;;;13.10;90.40;;;;;;5066725;28;20248;-47
2021/10/10 11:52:35;;;;;;;9.50;7.95;;;13.20;90.20;;;;;;5073872;28;20306;-48
2021/10/10 11:57:55;;;;;;;8.10;7.22;;;13.30;90.00;;;;;;5074552;28;20285;-46
2021/10/10 12:00:31;;;;;;;8.68;7.88;;;13.30;89.80;;;;;;5075201;28;20505;-44
2021/10/10 12:03:16;;;;;;;7.55;6.82;;;13.30;88.70;;;;;;5082490;28;20266;-44
2021/10/10 12:05:45;;;;;;;8.02;6.60;;;13.30;89.50;;;;;;5078315;28;20206;-46
2021/10/10 12:08:22;;;;;;;10.77;6.68;;;13.50;89.30;;;;;;5058866;28;20716;-51
2021/10/10 12:10:49;;;;;;;7.07;6.57;;;13.50;87.00;;;;;;5081329;28;20227;-50
2021/10/10 12:13:18;;;;;;;12.35;8.30;;;13.40;86.40;;;;;;5078884;28;20448;-55
2021/10/10 12:16:01;;;;;;;7.75;7.03;;;13.60;84.30;;;;;;5080634;28;20203;-49
2021/10/10 12:18:31;;;;;;;8.35;6.45;;;13.60;83.50;;;;;;5078627;28;20241;-50
2021/10/10 12:21:17;;;;;;;6.53;6.03;;;13.70;83.20;;;;;;5074845;28;20207;-48
2021/10/10 12:23:44;;;;;;;8.63;6.45;;;13.50;84.20;;;;;;5081572;28;20218;-47
2021/10/10 12:26:13;;;;;;;10.95;6.50;;;13.50;83.80;;;;;;5071079;28;20264;-45
2021/10/10 12:28:40;;;;;;;7.20;6.60;;;13.60;83.10;;;;;;5077037;28;20207;-46
2021/10/10 12:31:07;;;;;;;7.63;6.93;;;13.60;84.00;;;;;;5078249;28;20260;-46
2021/10/10 12:33:42;;;;;;;6.75;6.15;;;13.50;84.20;;;;;;5077140;28;20223;-50
2021/10/10 12:36:15;;;;;;;6.68;6.05;;;13.50;84.50;;;;;;5069382;28;20325;-49
2021/10/10 12:38:52;;;;;;;7.63;6.45;;;13.50;85.80;;;;;;5068140;28;20204;-47
2021/10/10 12:41:22;;;;;;;9.85;6.95;;;13.50;84.30;;;;;;5077424;28;20194;-44
2021/10/10 12:44:12;;;;;;;7.05;5.78;;;13.60;84.20;;;;;;5073394;28;20226;-51
2021/10/10 12:46:57;;;;;;;7.05;5.90;;;13.60;84.90;;;;;;5076886;28;20223;-48
2021/10/10 12:49:36;;;;;;;7.10;6.15;;;13.70;84.20;;;;;;5072586;28;20196;-47
2021/10/10 12:52:08;;;;;;;9.80;7.68;;;13.60;83.60;;;;;;5075339;28;20226;-46
2021/10/10 12:54:46;;;;;;;6.10;5.50;;;13.60;84.50;;;;;;5066384;28;20210;-48
2021/10/10 12:57:18;;;;;;;6.95;6.20;;;13.70;83.40;;;;;;5076977;28;20215;-48
2021/10/10 12:59:52;;;;;;;6.20;5.80;;;13.60;84.70;;;;;;5070318;28;20203;-45